Terminal Aerodrome Forecast
Issued by NWS Des Moines, IA

Home | Current Version | Previous Version | Text Only | Print | Product List | Glossary On
Versions: 1 2 3 4 5 6 7 8 9 10 11 12 13 14 15 16 17 18 19
000
FTUS43 KDMX 182321
TAFALO
TAF
KALO 182321Z 1900/1924 17008KT 6SM BR SKC
      TEMPO 1901/1903 3SM BR SCT006
     FM190300 18006KT 2SM BR BKN006
     FM190700 18005KT 1/2SM FG OVC004
     FM191700 14005KT 1SM BR OVC006=

USA.gov is the U.S. government's official web portal to all federal, state and local government web resources and services.